Time;durP1;ratioP1;P1;durP2;ratioP2;P2;SDS_P1;SDS_P2;PMS_P1;PMS_P2;Temp;Humidity;BMP_temperature;BMP_pressure;BME280_temperature;BME280_humidity;BME280_pressure;Samples;Min_cycle;Max_cycle;Signal;HPM_P1;HPM_P2
2024/02/10 00:01:56;;;;;;;;;;;;;;;8.49;100.00;95902.41;6098718;19;19926;-74
2024/02/10 00:03:56;;;;;;;;;;;;;;;8.46;100.00;95895.00;6098208;19;19914;-74
2024/02/10 00:06:00;;;;;;;;;;;;;;;8.46;100.00;95891.47;6097570;19;20236;-74
2024/02/10 00:08:02;;;;;;;;;;;;;;;8.43;100.00;95891.09;6094923;19;20316;-75
2024/02/10 00:10:04;;;;;;;;;;;;;;;8.41;100.00;95885.25;6095240;19;20234;-74
2024/02/10 00:12:05;;;;;;;;;;;;;;;8.42;100.00;95877.75;6095354;19;19923;-74
2024/02/10 00:14:06;;;;;;;;;;;;;;;8.41;100.00;95878.97;6096298;19;19907;-74
2024/02/10 00:16:06;;;;;;;;;;;;;;;8.40;100.00;95874.66;6094869;19;20209;-74
2024/02/10 00:18:08;;;;;;;;;;;;;;;8.38;100.00;95871.56;6094662;19;19911;-74
2024/02/10 00:20:15;;;;;;;;;;;;;;;8.35;100.00;95875.91;6095362;19;19925;-74
2024/02/10 00:22:16;;;;;;;;;;;;;;;8.33;100.00;95880.28;6096126;19;19915;-75
2024/02/10 00:24:17;;;;;;;;;;;;;;;8.30;100.00;95873.66;6095780;19;20629;-74
2024/02/10 00:26:21;;;;;;;;;;;;;;;8.28;100.00;95870.56;6096062;19;21031;-75
2024/02/10 00:28:21;;;;;;;;;;;;;;;8.27;100.00;95876.47;6094216;19;19926;-74
2024/02/10 00:30:23;;;;;;;;;;;;;;;8.26;100.00;95867.44;6095534;19;19931;-74
2024/02/10 00:32:23;;;;;;;;;;;;;;;8.24;100.00;95869.06;6091070;19;19915;-74
2024/02/10 00:34:25;;;;;;;;;;;;;;;8.21;100.00;95870.69;6095608;19;19911;-74
2024/02/10 00:36:25;;;;;;;;;;;;;;;8.18;100.00;95883.31;6095019;19;19949;-74
2024/02/10 00:38:26;;;;;;;;;;;;;;;8.16;100.00;95871.97;6094341;19;20368;-74
2024/02/10 00:40:26;;;;;;;;;;;;;;;8.14;100.00;95874.38;6096085;19;19923;-74
2024/02/10 00:42:28;;;;;;;;;;;;;;;8.14;100.00;95868.88;6095500;19;19923;-74
2024/02/10 00:44:29;;;;;;;;;;;;;;;8.14;100.00;95870.84;6095173;19;19911;-74
2024/02/10 00:46:31;;;;;;;;;;;;;;;8.14;100.00;95868.09;6095075;19;19920;-74
2024/02/10 00:48:32;;;;;;;;;;;;;;;8.13;100.00;95866.53;6109635;19;19978;-74
2024/02/10 00:50:32;;;;;;;;;;;;;;;8.12;100.00;95870.50;6109580;19;20350;-74
2024/02/10 00:52:34;;;;;;;;;;;;;;;8.10;100.00;95870.13;6110249;19;19943;-74
2024/02/10 00:54:34;;;;;;;;;;;;;;;8.09;100.00;95865.81;6110607;19;19930;-74
2024/02/10 00:56:36;;;;;;;;;;;;;;;8.07;100.00;95871.00;6109731;19;19940;-74
2024/02/10 00:58:40;;;;;;;;;;;;;;;8.06;100.00;95869.44;6109246;19;20085;-74
2024/02/10 01:00:42;;;;;;;;;;;;;;;8.03;100.00;95879.34;6108801;19;19932;-75
2024/02/10 01:02:45;;;;;;;;;;;;;;;8.03;100.00;95878.56;6109634;19;20289;-74
2024/02/10 01:04:46;;;;;;;;;;;;;;;8.02;100.00;95883.25;6110642;19;20319;-74
2024/02/10 01:06:48;;;;;;;;;;;;;;;8.01;100.00;95884.47;6110620;19;19922;-74
2024/02/10 01:08:50;;;;;;;;;;;;;;;8.01;100.00;95881.72;6109494;19;20037;-74
2024/02/10 01:10:51;;;;;;;;;;;;;;;8.00;100.00;95874.66;6110114;19;20258;-74
2024/02/10 01:12:51;;;;;;;;;;;;;;;8.01;100.00;95875.44;6109447;19;19917;-74
2024/02/10 01:14:55;;;;;;;;;;;;;;;8.00;100.00;95871.13;6109690;19;19975;-74
2024/02/10 01:16:55;;;;;;;;;;;;;;;7.99;100.00;95875.09;6110265;19;20862;-74
2024/02/10 01:18:57;;;;;;;;;;;;;;;7.97;100.00;95867.25;6108307;19;19947;-74
2024/02/10 01:20:57;;;;;;;;;;;;;;;7.99;100.00;95869.59;6109906;19;20289;-74
2024/02/10 01:22:59;;;;;;;;;;;;;;;8.01;100.00;95861.66;6109307;19;19926;-74
2024/02/10 01:24:59;;;;;;;;;;;;;;;7.99;100.00;95858.56;6110028;19;19922;-74
2024/02/10 01:26:59;;;;;;;;;;;;;;;7.98;100.00;95855.03;6110013;19;20222;-74
2024/02/10 01:28:59;;;;;;;;;;;;;;;7.97;100.00;95855.47;6108728;19;20340;-74
2024/02/10 01:31:00;;;;;;;;;;;;;;;8.03;100.00;95859.28;6108264;19;19918;-74
2024/02/10 01:33:01;;;;;;;;;;;;;;;7.99;100.00;95856.59;6109948;19;19914;-74
2024/02/10 01:35:03;;;;;;;;;;;;;;;7.99;100.00;95866.81;6108792;19;19920;-74
2024/02/10 01:37:04;;;;;;;;;;;;;;;7.96;100.00;95860.19;6109631;19;19930;-74
2024/02/10 01:39:04;;;;;;;;;;;;;;;7.91;100.00;95865.41;6108098;19;19915;-74
2024/02/10 01:41:04;;;;;;;;;;;;;;;7.89;100.00;95863.09;6109465;19;20399;-74
2024/02/10 01:43:04;;;;;;;;;;;;;;;7.86;100.00;95863.91;6114492;19;20260;-74
2024/02/10 01:45:08;;;;;;;;;;;;;;;7.84;100.00;95871.84;6120123;19;20005;-74
2024/02/10 01:47:10;;;;;;;;;;;;;;;7.80;100.00;95863.66;6120411;19;19918;-74
2024/02/10 01:49:11;;;;;;;;;;;;;;;7.80;100.00;95862.88;6120988;19;19917;-74
2024/02/10 01:51:11;;;;;;;;;;;;;;;7.77;100.00;95864.47;6120948;19;19970;-74
2024/02/10 01:53:12;;;;;;;;;;;;;;;7.75;100.00;95857.84;6120717;19;20461;-74
2024/02/10 01:55:13;;;;;;;;;;;;;;;7.74;100.00;95857.09;6120065;19;19915;-74
2024/02/10 01:57:13;;;;;;;;;;;;;;;7.76;100.00;95853.91;6120232;19;19934;-74
2024/02/10 01:59:13;;;;;;;;;;;;;;;7.73;100.00;95854.75;6119791;19;20233;-74
2024/02/10 02:01:17;;;;;;;;;;;;;;;7.71;100.00;95846.94;6120676;19;19911;-74
2024/02/10 02:03:17;;;;;;;;;;;;;;;7.69;100.00;95841.06;6120948;19;19913;-74
2024/02/10 02:05:18;;;;;;;;;;;;;;;7.69;100.00;95849.31;6120787;19;20257;-74
2024/02/10 02:07:20;;;;;;;;;;;;;;;7.68;100.00;95850.50;6119354;19;19925;-74
2024/02/10 02:09:20;;;;;;;;;;;;;;;7.68;100.00;95852.47;6119510;19;19910;-74
2024/02/10 02:11:20;;;;;;;;;;;;;;;7.65;100.00;95847.84;6118831;19;19918;-74
2024/02/10 02:13:22;;;;;;;;;;;;;;;7.63;100.00;95844.75;6119044;19;19910;-74
2024/02/10 02:15:27;;;;;;;;;;;;;;;7.60;100.00;95846.34;6117951;19;19907;-74
2024/02/10 02:17:27;;;;;;;;;;;;;;;7.58;100.00;95851.50;6117939;19;19918;-74
2024/02/10 02:19:29;;;;;;;;;;;;;;;7.55;100.00;95847.63;6118982;19;20630;-74
2024/02/10 02:21:32;;;;;;;;;;;;;;;7.53;100.00;95840.97;6118768;19;19955;-74
2024/02/10 02:23:35;;;;;;;;;;;;;;;7.50;100.00;95839.06;6118030;19;20364;-74
2024/02/10 02:25:35;;;;;;;;;;;;;;;7.47;100.00;95846.19;6119473;19;20349;-74
2024/02/10 02:27:37;;;;;;;;;;;;;;;7.47;100.00;95840.69;6117937;19;20236;-74
2024/02/10 02:29:37;;;;;;;;;;;;;;;7.47;100.00;95845.41;6118746;19;19911;-74
2024/02/10 02:31:37;;;;;;;;;;;;;;;7.45;100.00;95839.56;6119147;19;20270;-74
2024/02/10 02:33:38;;;;;;;;;;;;;;;7.45;100.00;95842.31;6119189;19;19922;-74
2024/02/10 02:35:40;;;;;;;;;;;;;;;7.44;100.00;95838.78;6118259;19;19918;-74
2024/02/10 02:37:40;;;;;;;;;;;;;;;7.45;100.00;95840.34;6117831;19;19906;-74
2024/02/10 02:39:44;;;;;;;;;;;;;;;7.46;100.00;95841.13;6117383;19;19982;-74
2024/02/10 02:41:44;;;;;;;;;;;;;;;7.45;100.00;95837.59;6118489;19;20406;-74
2024/02/10 02:43:45;;;;;;;;;;;;;;;7.45;100.00;95823.84;6119472;19;19967;-74
2024/02/10 02:45:45;;;;;;;;;;;;;;;7.44;100.00;95824.25;6117897;19;20316;-74
2024/02/10 02:47:45;;;;;;;;;;;;;;;7.43;100.00;95826.22;6116895;19;19911;-74
2024/02/10 02:49:46;;;;;;;;;;;;;;;7.42;100.00;95819.16;6118792;19;19952;-74
2024/02/10 02:51:48;;;;;;;;;;;;;;;7.42;100.00;95818.38;6118596;19;19974;-74
2024/02/10 02:53:49;;;;;;;;;;;;;;;7.43;100.00;95828.19;6117915;19;19922;-74
2024/02/10 02:55:49;;;;;;;;;;;;;;;7.42;100.00;95823.88;6110716;19;19925;-74
2024/02/10 02:57:50;;;;;;;;;;;;;;;7.40;100.00;95827.06;6111398;19;19923;-74
2024/02/10 02:59:50;;;;;;;;;;;;;;;7.38;100.00;95832.22;6110066;19;19911;-74
2024/02/10 03:01:51;;;;;;;;;;;;;;;7.38;100.00;95823.97;6112279;19;19919;-74
2024/02/10 03:03:52;;;;;;;;;;;;;;;7.39;100.00;95825.53;6112861;19;20148;-74
2024/02/10 03:05:53;;;;;;;;;;;;;;;7.41;100.00;95823.13;6111881;19;19925;-74
2024/02/10 03:07:53;;;;;;;;;;;;;;;7.42;100.00;95823.88;6109723;19;19910;-74
2024/02/10 03:09:54;;;;;;;;;;;;;;;7.40;100.00;95820.78;6111852;19;20365;-74
2024/02/10 03:11:54;;;;;;;;;;;;;;;7.39;100.00;95816.50;6112404;19;19914;-74
2024/02/10 03:13:54;;;;;;;;;;;;;;;7.40;100.00;95818.03;6111313;19;19921;-74
2024/02/10 03:15:54;;;;;;;;;;;;;;;7.36;100.00;95818.09;6112219;19;19914;-74
2024/02/10 03:17:55;;;;;;;;;;;;;;;7.34;100.00;95820.50;6111625;19;19911;-74
2024/02/10 03:19:56;;;;;;;;;;;;;;;7.32;100.00;95818.16;6110666;19;19931;-74
2024/02/10 03:22:00;;;;;;;;;;;;;;;7.32;100.00;95818.16;6111334;19;19911;-74
2024/02/10 03:24:03;;;;;;;;;;;;;;;7.33;100.00;95816.97;6111028;19;19914;-74
2024/02/10 03:26:03;;;;;;;;;;;;;;;7.32;100.00;95820.91;6110091;19;20890;-74
2024/02/10 03:28:03;;;;;;;;;;;;;;;7.32;100.00;95820.91;6109294;19;19984;-74
2024/02/10 03:30:04;;;;;;;;;;;;;;;7.33;100.00;95814.22;6110781;19;19975;-74
2024/02/10 03:32:04;;;;;;;;;;;;;;;7.33;100.00;95819.72;6111476;19;19911;-74
2024/02/10 03:34:04;;;;;;;;;;;;;;;7.33;100.00;95814.22;6110066;19;19926;-74
2024/02/10 03:36:05;;;;;;;;;;;;;;;7.33;100.00;95816.97;6111392;19;20323;-74
2024/02/10 03:38:07;;;;;;;;;;;;;;;7.33;100.00;95816.19;6109818;19;19911;-74
2024/02/10 03:40:11;;;;;;;;;;;;;;;7.32;100.00;95815.41;6110771;19;19974;-74
2024/02/10 03:42:11;;;;;;;;;;;;;;;7.32;100.00;95811.91;6111569;19;19928;-74
2024/02/10 03:44:12;;;;;;;;;;;;;;;7.31;100.00;95813.09;6109165;19;19926;-74
2024/02/10 03:46:15;;;;;;;;;;;;;;;7.30;100.00;95814.28;6102985;19;19922;-74
2024/02/10 03:48:15;;;;;;;;;;;;;;;7.29;100.00;95813.53;6108274;19;19918;-74
2024/02/10 03:50:15;;;;;;;;;;;;;;;7.28;100.00;95817.47;6109045;19;19915;-74
2024/02/10 03:52:15;;;;;;;;;;;;;;;7.25;100.00;95810.03;6110968;19;19910;-74
2024/02/10 03:54:16;;;;;;;;;;;;;;;7.21;100.00;95817.59;6110942;19;19922;-74
2024/02/10 03:56:16;;;;;;;;;;;;;;;7.21;100.00;95825.06;6111151;19;19923;-74
2024/02/10 03:58:17;;;;;;;;;;;;;;;7.19;100.00;95817.22;6107597;19;19924;-74
2024/02/10 04:00:20;;;;;;;;;;;;;;;7.17;100.00;95822.38;6108123;19;19911;-74
2024/02/10 04:02:20;;;;;;;;;;;;;;;7.17;100.00;95818.84;6111110;19;20214;-74
2024/02/10 04:04:21;;;;;;;;;;;;;;;7.15;100.00;95819.28;6110651;19;19938;-74
2024/02/10 04:06:23;;;;;;;;;;;;;;;7.15;100.00;95819.28;6108878;19;19945;-74
2024/02/10 04:08:24;;;;;;;;;;;;;;;7.14;100.00;95817.72;6109503;19;19975;-74
2024/02/10 04:10:28;;;;;;;;;;;;;;;7.16;100.00;95817.28;6110478;19;19997;-74
2024/02/10 04:12:30;;;;;;;;;;;;;;;7.13;100.00;95818.91;6110825;19;19915;-74
2024/02/10 04:14:30;;;;;;;;;;;;;;;7.12;100.00;95809.13;6107964;19;19910;-74
2024/02/10 04:16:30;;;;;;;;;;;;;;;7.13;100.00;95815.41;6109452;19;19922;-74
2024/02/10 04:18:31;;;;;;;;;;;;;;;7.11;100.00;95804.78;6109011;19;19937;-74
2024/02/10 04:20:31;;;;;;;;;;;;;;;7.10;100.00;95811.50;6109795;19;20318;-74
2024/02/10 04:22:32;;;;;;;;;;;;;;;7.06;100.00;95810.78;6110555;19;20196;-75
2024/02/10 04:24:32;;;;;;;;;;;;;;;7.01;100.00;95814.00;6107827;19;20605;-74
2024/02/10 04:26:32;;;;;;;;;;;;;;;6.95;100.00;95821.97;6109819;19;19915;-74
2024/02/10 04:28:35;;;;;;;;;;;;;;;6.92;100.00;95819.28;6109688;19;19914;-75
2024/02/10 04:30:35;;;;;;;;;;;;;;;6.91;100.00;95821.25;6106091;19;19986;-74
2024/02/10 04:32:42;;;;;;;;;;;;;;;6.88;100.00;95821.31;6110135;19;21001;-74
2024/02/10 04:34:44;;;;;;;;;;;;;;;6.87;100.00;95820.53;6109334;19;19946;-74
2024/02/10 04:36:44;;;;;;;;;;;;;;;6.85;100.00;95819.38;6110291;19;20249;-75
2024/02/10 04:38:47;;;;;;;;;;;;;;;6.84;100.00;95812.34;6106312;19;19910;-74
2024/02/10 04:40:47;;;;;;;;;;;;;;;6.81;100.00;95807.69;6109033;19;19943;-74
2024/02/10 04:42:48;;;;;;;;;;;;;;;6.79;100.00;95813.59;6110514;19;20002;-74
2024/02/10 04:44:49;;;;;;;;;;;;;;;6.81;100.00;95811.22;6107509;19;19954;-74
2024/02/10 04:46:49;;;;;;;;;;;;;;;6.79;100.00;95818.34;6103478;19;19911;-74
2024/02/10 04:48:52;;;;;;;;;;;;;;;6.74;100.00;95812.09;6094347;19;19911;-74
2024/02/10 04:50:53;;;;;;;;;;;;;;;6.70;100.00;95807.84;6093964;19;19906;-74
2024/02/10 04:52:55;;;;;;;;;;;;;;;6.68;100.00;95813.00;6093894;19;20158;-74
2024/02/10 04:54:55;;;;;;;;;;;;;;;6.65;100.00;95811.84;6094466;19;19907;-74
2024/02/10 04:56:58;;;;;;;;;;;;;;;6.64;100.00;95813.06;6095019;19;20447;-74
2024/02/10 04:58:58;;;;;;;;;;;;;;;6.63;100.00;95811.50;6093655;19;19911;-74
2024/02/10 05:00:59;;;;;;;;;;;;;;;6.66;100.00;95807.13;6094179;19;19911;-74
2024/02/10 05:03:02;;;;;;;;;;;;;;;6.67;100.00;95808.69;6094991;19;20737;-74
2024/02/10 05:05:06;;;;;;;;;;;;;;;6.68;100.00;95808.28;6095371;19;19924;-74
2024/02/10 05:07:08;;;;;;;;;;;;;;;6.69;100.00;95795.31;6095366;19;20324;-74
2024/02/10 05:09:09;;;;;;;;;;;;;;;6.68;100.00;95800.03;6093695;19;19936;-74
2024/02/10 05:11:09;;;;;;;;;;;;;;;6.68;100.00;95802.78;6094622;19;19910;-74
2024/02/10 05:13:09;;;;;;;;;;;;;;;6.67;100.00;95806.72;6093269;19;20215;-74
2024/02/10 05:15:10;;;;;;;;;;;;;;;6.66;100.00;95807.13;6094030;19;19984;-74
2024/02/10 05:17:13;;;;;;;;;;;;;;;6.64;100.00;95813.06;6092801;19;19915;-74
2024/02/10 05:19:13;;;;;;;;;;;;;;;6.61;100.00;95807.59;6093717;19;20243;-74
2024/02/10 05:21:22;;;;;;;;;;;;;;;6.60;100.00;95803.31;6094694;19;20609;-74
2024/02/10 05:23:23;;;;;;;;;;;;;;;6.57;100.00;95813.16;6094722;19;20282;-74
2024/02/10 05:25:27;;;;;;;;;;;;;;;6.54;100.00;95810.44;6099185;19;19914;-74
2024/02/10 05:27:27;;;;;;;;;;;;;;;6.48;100.00;95802.69;6099659;19;20677;-74
2024/02/10 05:29:27;;;;;;;;;;;;;;;6.44;100.00;95803.94;6100145;19;19915;-74
2024/02/10 05:31:28;;;;;;;;;;;;;;;6.39;100.00;95799.72;6101504;19;19914;-74
2024/02/10 05:33:28;;;;;;;;;;;;;;;6.34;100.00;95800.16;6099668;19;19914;-74
2024/02/10 05:35:29;;;;;;;;;;;;;;;6.31;100.00;95801.00;6101005;19;19917;-74
2024/02/10 05:37:38;;;;;;;;;;;;;;;6.28;100.00;95803.78;6099267;19;19971;-74
2024/02/10 05:39:38;;;;;;;;;;;;;;;6.20;100.00;95792.91;6100331;19;19931;-74
2024/02/10 05:41:38;;;;;;;;;;;;;;;6.19;100.00;95798.81;6100934;19;20364;-74
2024/02/10 05:43:39;;;;;;;;;;;;;;;6.17;100.00;95793.75;6100371;19;20219;-74
2024/02/10 05:45:39;;;;;;;;;;;;;;;6.17;100.00;95792.97;6100153;19;20624;-74
2024/02/10 05:47:39;;;;;;;;;;;;;;;6.16;100.00;95805.13;6104126;19;20203;-74
2024/02/10 05:49:40;;;;;;;;;;;;;;;6.16;100.00;95807.88;6108100;19;19992;-74
2024/02/10 05:51:40;;;;;;;;;;;;;;;6.14;100.00;95802.03;6107741;19;19913;-74
2024/02/10 05:53:45;;;;;;;;;;;;;;;6.10;100.00;95804.03;6108021;19;19921;-74
2024/02/10 05:55:45;;;;;;;;;;;;;;;6.09;100.00;95800.53;6108141;19;19946;-74
2024/02/10 05:57:45;;;;;;;;;;;;;;;6.10;100.00;95804.81;6106244;19;20010;-74
2024/02/10 05:59:45;;;;;;;;;;;;;;;6.13;100.00;95805.97;6107168;19;19918;-74
2024/02/10 06:01:47;;;;;;;;;;;;;;;6.16;100.00;95802.41;6108017;19;19918;-74
2024/02/10 06:03:50;;;;;;;;;;;;;;;6.18;100.00;95808.25;6108098;19;20384;-74
2024/02/10 06:05:50;;;;;;;;;;;;;;;6.19;100.00;95816.06;6106244;19;19921;-74
2024/02/10 06:07:51;;;;;;;;;;;;;;;6.21;100.00;95807.44;6106904;19;19919;-74
2024/02/10 06:09:51;;;;;;;;;;;;;;;6.23;100.00;95821.53;6107755;19;20672;-74
2024/02/10 06:11:51;;;;;;;;;;;;;;;6.24;100.00;95822.28;6108674;19;19942;-74
2024/02/10 06:13:52;;;;;;;;;;;;;;;6.25;100.00;95832.09;6104798;19;19918;-74
2024/02/10 06:15:54;;;;;;;;;;;;;;;6.26;100.00;95833.63;6108093;19;19915;-74
2024/02/10 06:17:55;;;;;;;;;;;;;;;6.27;100.00;95821.47;6107043;19;19915;-74
2024/02/10 06:19:55;;;;;;;;;;;;;;;6.30;100.00;95834.38;6106232;19;20341;-74
2024/02/10 06:21:55;;;;;;;;;;;;;;;6.30;100.00;95837.91;6105800;19;19967;-74
2024/02/10 06:23:58;;;;;;;;;;;;;;;6.30;100.00;95840.63;6108208;19;20306;-74
2024/02/10 06:25:58;;;;;;;;;;;;;;;6.31;100.00;95849.66;6106898;19;19978;-74
2024/02/10 06:27:59;;;;;;;;;;;;;;;6.32;100.00;95851.22;6106269;19;20319;-74
2024/02/10 06:30:00;;;;;;;;;;;;;;;6.31;100.00;95857.91;6107529;19;20272;-74
2024/02/10 06:32:06;;;;;;;;;;;;;;;6.30;100.00;95851.63;6113093;19;19918;-74
2024/02/10 06:34:08;;;;;;;;;;;;;;;6.29;100.00;95852.81;6112200;19;20047;-74
2024/02/10 06:36:08;;;;;;;;;;;;;;;6.28;100.00;95854.00;6111526;19;20351;-74
2024/02/10 06:38:09;;;;;;;;;;;;;;;6.27;100.00;95846.94;6111404;19;19919;-74
2024/02/10 06:40:13;;;;;;;;;;;;;;;6.28;100.00;95844.97;6111163;19;19915;-74
2024/02/10 06:42:13;;;;;;;;;;;;;;;6.27;100.00;95841.44;6111683;19;19919;-74
2024/02/10 06:44:13;;;;;;;;;;;;;;;6.28;100.00;95844.97;6113018;19;19907;-74
2024/02/10 06:46:16;;;;;;;;;;;;;;;6.28;100.00;95847.72;6111550;19;20239;-74
2024/02/10 06:48:18;;;;;;;;;;;;;;;6.30;100.00;95848.88;6110085;19;20157;-74
2024/02/10 06:50:26;;;;;;;;;;;;;;;6.33;100.00;95853.53;6112170;19;19986;-74
2024/02/10 06:52:26;;;;;;;;;;;;;;;6.35;100.00;95855.88;6112725;19;19925;-74
2024/02/10 06:54:27;;;;;;;;;;;;;;;6.38;100.00;95853.09;6112385;19;20589;-74
2024/02/10 06:56:28;;;;;;;;;;;;;;;6.40;100.00;95853.44;6111651;19;19910;-74
2024/02/10 06:58:28;;;;;;;;;;;;;;;6.41;100.00;95868.72;6111261;19;19937;-74
2024/02/10 07:00:37;;;;;;;;;;;;;;;6.41;100.00;95865.97;6111621;19;20351;-74
2024/02/10 07:02:42;;;;;;;;;;;;;;;6.43;100.00;95866.34;6112373;19;19934;-74
2024/02/10 07:04:52;;;;;;;;;;;;;;;6.43;100.00;95871.06;6109686;19;19914;-74
2024/02/10 07:06:57;;;;;;;;;;;;;;;6.44;100.00;95869.84;6111951;19;19951;-74
2024/02/10 07:09:03;;;;;;;;;;;;;;;6.45;100.00;95874.16;6110158;19;20228;-74
2024/02/10 07:11:03;;;;;;;;;;;;;;;6.45;100.00;95869.47;6109116;19;20371;-74
2024/02/10 07:13:07;;;;;;;;;;;;;;;6.46;100.00;95876.50;6111596;19;19927;-74
2024/02/10 07:15:07;;;;;;;;;;;;;;;6.46;100.00;95870.25;6110478;19;19933;-74
2024/02/10 07:17:09;;;;;;;;;;;;;;;6.47;100.00;95880.03;6108080;19;20860;-74
2024/02/10 07:19:11;;;;;;;;;;;;;;;6.46;100.00;95879.25;6109921;19;20316;-74
2024/02/10 07:21:11;;;;;;;;;;;;;;;6.46;100.00;95882.00;6111164;19;19987;-74
2024/02/10 07:23:12;;;;;;;;;;;;;;;6.46;100.00;95886.72;6110986;19;19914;-74
2024/02/10 07:25:12;;;;;;;;;;;;;;;6.46;100.00;95882.00;6111291;19;19979;-74
2024/02/10 07:27:18;;;;;;;;;;;;;;;6.47;100.00;95888.28;6109564;19;19926;-74
2024/02/10 07:29:21;;;;;;;;;;;;;;;6.48;100.00;95887.84;6111410;19;19911;-74
2024/02/10 07:31:21;;;;;;;;;;;;;;;6.50;100.00;95889.41;6111329;19;19914;-74
2024/02/10 07:33:22;;;;;;;;;;;;;;;6.51;100.00;95893.69;6111518;19;19930;-74
2024/02/10 07:35:22;;;;;;;;;;;;;;;6.54;100.00;95890.13;6111089;19;19907;-74
2024/02/10 07:37:22;;;;;;;;;;;;;;;6.56;100.00;95896.78;6110420;19;20295;-74
2024/02/10 07:39:25;;;;;;;;;;;;;;;6.55;100.00;95889.72;6110399;19;20340;-74
2024/02/10 07:41:25;;;;;;;;;;;;;;;6.58;100.00;95888.88;6111305;19;19907;-74
2024/02/10 07:43:27;;;;;;;;;;;;;;;6.60;100.00;95892.00;6109928;19;19929;-74
2024/02/10 07:45:27;;;;;;;;;;;;;;;6.64;100.00;95883.72;6111370;19;19915;-74
2024/02/10 07:47:28;;;;;;;;;;;;;;;6.66;100.00;95893.09;6109586;19;20403;-74
2024/02/10 07:49:28;;;;;;;;;;;;;;;6.68;100.00;95882.44;6108983;19;19911;-74
2024/02/10 07:51:30;;;;;;;;;;;;;;;6.74;100.00;95886.28;6108980;19;19939;-74
2024/02/10 07:53:30;;;;;;;;;;;;;;;6.78;100.00;95890.94;6110260;19;19933;-74
2024/02/10 07:55:33;;;;;;;;;;;;;;;6.82;100.00;95888.94;6111958;19;19922;-74
2024/02/10 07:57:34;;;;;;;;;;;;;;;6.87;100.00;95896.69;6110494;19;19922;-74
2024/02/10 07:59:34;;;;;;;;;;;;;;;6.91;100.00;95889.97;6111236;19;19922;-74
2024/02/10 08:01:35;;;;;;;;;;;;;;;6.95;100.00;95887.94;6110140;19;19979;-74
2024/02/10 08:03:35;;;;;;;;;;;;;;;7.04;100.00;95895.66;6111853;19;19911;-74
2024/02/10 08:05:37;;;;;;;;;;;;;;;7.12;100.00;95893.59;6111883;19;19907;-74
2024/02/10 08:07:38;;;;;;;;;;;;;;;7.17;100.00;95899.38;6109677;19;19936;-74
2024/02/10 08:09:39;;;;;;;;;;;;;;;7.23;100.00;95907.91;6111659;19;19915;-74
2024/02/10 08:11:43;;;;;;;;;;;;;;;7.28;100.00;95907.44;6109951;19;19919;-74
2024/02/10 08:13:43;;;;;;;;;;;;;;;7.35;100.00;95909.28;6110278;19;19907;-74
2024/02/10 08:15:46;;;;;;;;;;;;;;;7.41;100.00;95910.38;6110188;19;19922;-74
2024/02/10 08:17:46;;;;;;;;;;;;;;;7.49;100.00;95914.56;6109654;19;19910;-74
2024/02/10 08:19:47;;;;;;;;;;;;;;;7.54;100.00;95914.09;6110717;19;20339;-74
2024/02/10 08:21:48;;;;;;;;;;;;;;;7.62;100.00;95912.75;6110622;19;20347;-74
2024/02/10 08:23:57;;;;;;;;;;;;;;;7.67;100.00;95919.72;6110583;19;19932;-74
2024/02/10 08:25:58;;;;;;;;;;;;;;;7.72;100.00;95911.00;6111018;19;19918;-74
2024/02/10 08:27:59;;;;;;;;;;;;;;;7.80;100.00;95912.44;6109460;19;19918;-74
2024/02/10 08:30:03;;;;;;;;;;;;;;;7.85;100.00;95914.66;6110448;19;19917;-74
2024/02/10 08:32:03;;;;;;;;;;;;;;;7.89;100.00;95915.41;6107885;19;19930;-74
2024/02/10 08:34:03;;;;;;;;;;;;;;;7.95;100.00;95915.69;6108708;19;19923;-74
2024/02/10 08:36:05;;;;;;;;;;;;;;;7.97;100.00;95911.31;6109163;19;19922;-74
2024/02/10 08:38:05;;;;;;;;;;;;;;;8.01;100.00;95917.50;6108648;19;19950;-74
2024/02/10 08:40:09;;;;;;;;;;;;;;;8.04;100.00;95913.16;6107444;19;19915;-74
2024/02/10 08:42:10;;;;;;;;;;;;;;;8.10;100.00;95922.44;6108258;19;20287;-74
2024/02/10 08:44:10;;;;;;;;;;;;;;;8.12;100.00;95920.84;6109658;19;20194;-74
2024/02/10 08:46:11;;;;;;;;;;;;;;;8.18;100.00;95916.38;6099901;19;19925;-74
2024/02/10 08:48:11;;;;;;;;;;;;;;;8.29;100.00;95924.44;6104462;19;19914;-74
2024/02/10 08:50:12;;;;;;;;;;;;;;;8.38;100.00;95915.63;6108120;19;19919;-74
2024/02/10 08:52:15;;;;;;;;;;;;;;;8.47;100.00;95910.31;6105775;19;20240;-74
2024/02/10 08:54:16;;;;;;;;;;;;;;;8.59;100.00;95906.13;6107111;19;19923;-74
2024/02/10 08:56:20;;;;;;;;;;;;;;;8.66;100.00;95917.00;6108909;19;20010;-74
2024/02/10 08:58:22;;;;;;;;;;;;;;;8.75;100.00;95913.66;6105924;19;19926;-74
2024/02/10 09:00:22;;;;;;;;;;;;;;;8.79;100.00;95906.09;6109613;19;19930;-74
2024/02/10 09:02:23;;;;;;;;;;;;;;;8.86;100.00;95905.94;6107741;19;19918;-74
2024/02/10 09:04:23;;;;;;;;;;;;;;;8.91;100.00;95895.16;6109437;19;20313;-74
2024/02/10 09:06:23;;;;;;;;;;;;;;;8.97;100.00;95904.47;6107015;19;20256;-74
2024/02/10 09:08:23;;;;;;;;;;;;;;;9.02;100.00;95908.72;6108437;19;20679;-74
2024/02/10 09:10:24;;;;;;;;;;;;;;;9.07;100.00;95912.91;6107698;19;19919;-74
2024/02/10 09:12:24;;;;;;;;;;;;;;;9.13;100.00;95906.47;6108815;19;20305;-74
2024/02/10 09:14:24;;;;;;;;;;;;;;;9.22;100.00;95905.88;6109784;19;20288;-74
2024/02/10 09:16:26;;;;;;;;;;;;;;;9.27;100.00;95911.66;6107053;19;19914;-74
2024/02/10 09:18:26;;;;;;;;;;;;;;;9.30;100.00;95910.00;6108320;19;19918;-74
2024/02/10 09:20:27;;;;;;;;;;;;;;;9.28;100.00;95904.91;6109265;19;19915;-74
2024/02/10 09:22:27;;;;;;;;;;;;;;;9.29;100.00;95900.19;6109475;19;19915;-74
2024/02/10 09:24:27;;;;;;;;;;;;;;;9.30;100.00;95904.47;6108186;19;19918;-74
2024/02/10 09:26:27;;;;;;;;;;;;;;;9.33;100.00;95900.84;6109801;19;19922;-75
2024/02/10 09:28:29;;;;;;;;;;;;;;;9.33;100.00;95908.34;6108111;19;19915;-74
2024/02/10 09:30:29;;;;;;;;;;;;;;;9.36;100.00;95900.00;6109076;19;19922;-74
2024/02/10 09:32:29;;;;;;;;;;;;;;;9.35;100.00;95898.47;6108994;19;19914;-74
2024/02/10 09:34:30;;;;;;;;;;;;;;;9.36;100.00;95899.22;6108311;19;19906;-74
2024/02/10 09:36:32;;;;;;;;;;;;;;;9.36;100.00;95899.22;6108709;19;19921;-74
2024/02/10 09:38:33;;;;;;;;;;;;;;;9.39;100.00;95898.34;6106732;19;19921;-74
2024/02/10 09:40:36;;;;;;;;;;;;;;;9.43;100.00;95904.53;6107090;19;19911;-74
2024/02/10 09:42:38;;;;;;;;;;;;;;;9.45;100.00;95899.38;6109160;19;19964;-75
2024/02/10 09:44:39;;;;;;;;;;;;;;;9.50;100.00;95893.31;6108755;19;19986;-74
2024/02/10 09:46:39;;;;;;;;;;;;;;;9.53;100.00;95890.50;6103777;19;19919;-74
2024/02/10 09:48:47;;;;;;;;;;;;;;;9.56;100.00;95895.13;6091082;19;19911;-74
2024/02/10 09:50:47;;;;;;;;;;;;;;;9.59;100.00;95896.25;6092736;19;20011;-74
2024/02/10 09:52:47;;;;;;;;;;;;;;;9.61;100.00;95901.34;6095787;19;20334;-74
2024/02/10 09:54:48;;;;;;;;;;;;;;;9.63;100.00;95898.94;6094420;19;19903;-74
2024/02/10 09:56:50;;;;;;;;;;;;;;;9.63;100.00;95894.19;6092673;19;20179;-74
2024/02/10 09:58:52;;;;;;;;;;;;;;;9.63;100.00;95891.41;6090648;19;19914;-74
2024/02/10 10:00:52;;;;;;;;;;;;;;;9.65;100.00;95896.50;6093167;19;19914;-74
2024/02/10 10:02:55;;;;;;;;;;;;;;;9.68;100.00;95901.16;6093764;19;19922;-75
2024/02/10 10:04:55;;;;;;;;;;;;;;;9.70;100.00;95905.03;6098177;19;20396;-75
2024/02/10 10:06:56;;;;;;;;;;;;;;;9.77;100.00;95895.81;6098973;19;21103;-74
2024/02/10 10:08:57;;;;;;;;;;;;;;;9.81;100.00;95899.22;6095736;19;19914;-74
2024/02/10 10:10:58;;;;;;;;;;;;;;;9.82;100.00;95898.78;6098377;19;20910;-74
2024/02/10 10:12:58;;;;;;;;;;;;;;;9.89;100.00;95897.81;6098301;19;20324;-74
2024/02/10 10:14:58;;;;;;;;;;;;;;;9.92;100.00;95899.72;6098796;19;20245;-74
2024/02/10 10:17:01;;;;;;;;;;;;;;;9.98;100.00;95903.50;6098361;19;19923;-74
2024/02/10 10:19:02;;;;;;;;;;;;;;;10.02;100.00;95897.88;6098270;19;19927;-74
2024/02/10 10:21:05;;;;;;;;;;;;;;;10.02;100.00;95893.13;6098487;19;19911;-74
2024/02/10 10:23:07;;;;;;;;;;;;;;;10.05;100.00;95889.50;6099932;19;20237;-74
2024/02/10 10:25:07;;;;;;;;;;;;;;;10.07;100.00;95900.09;6096243;19;19941;-74
2024/02/10 10:27:07;;;;;;;;;;;;;;;10.13;100.00;95895.59;6096830;19;19910;-74
2024/02/10 10:29:10;;;;;;;;;;;;;;;10.18;100.00;95900.59;6098210;19;19914;-74
2024/02/10 10:31:10;;;;;;;;;;;;;;;10.25;100.00;95899.63;6097568;19;19945;-75